Terminal Aerodrome Forecast
Issued by NWS Quad Cities IA IL

Home | Current Version | Previous Version | Text Only | Print | Product List | Glossary On
Versions: 1 2 3 4 5 6 7 8 9 10 11 12 13 14 15 16 17 18 19 20 21 22 23 24 25
000
FTUS43 KDVN 201100
TAFDBQ
TAF
KDBQ 201130Z 2012/2112 14006KT 5SM BR OVC025
     FM201400 15006KT 5SM -FZDZSN BR OVC015
     FM201700 16007KT 6SM BR OVC008
     FM210100 16006KT 5SM BR OVC006
     FM210600 16006KT 3SM -FZDZ BR OVC005=

USA.gov is the U.S. government's official web portal to all federal, state and local government web resources and services.